Thunder radar more information blitzortung!


Radar de pluja more information rain snow radar


Visita la nostra xarxa de llocs de meteo:

Template documentation
and downloads

And another site



No particular awareness of the weather is required.    There are no Weather-warnings

Pagina Historial Weather Underground text

Diari Resum Juny 28, 2017 Unitats:  Mètric    Imperial   Tant
« Previous Dia
SegĂźent Dia »
Diari Setmana Mensual Anual Personalitzada
  Maxima: Minima: Media:
Temperatura: 31.4 °C 18.7 °C 24.8 °C
Punt de rosada: 18.3 °C 8.6 °C 12 °C
Humitat: 78 % 28 % 48 %
Wind Speed: 33.3 km/h 0.0 km/h 10 km/h
RĂ fegues de vent: 33.3 km/h - -
Vent:- - SSW
Pression baro: 1005.0 hPa 999.9 hPa -
Precipitacions: 2.0 mm    
Historical Graphs
 
 
Dades de taula per Juny 28, 2017
Temps Temperatura Punt de rosada Pression baro Vent Wind Speed RĂ fegues de vent Humitat Rainfall Rate (Hourly)
00:00 21.0 °C 16.4 °C 1003.9 hPa ENE 3.2 km/h 4.8 km/h 75 % 0.0 mm
00:04 23.4 °C 18.3 °C 1002.9 hPa Calm     73 % 0.0 mm
00:10 21.0 °C 16.6 °C 1003.9 hPa ENE 1.6 km/h 4.8 km/h 76 % 0.0 mm
00:20 21.0 °C 16.6 °C 1003.9 hPa NE 3.2 km/h 6.4 km/h 76 % 0.0 mm
00:30 21.0 °C 16.6 °C 1003.9 hPa NE 3.2 km/h 4.8 km/h 76 % 0.0 mm
00:40 20.9 °C 16.7 °C 1002.9 hPa Calm   3.2 km/h 77 % 0.0 mm
00:50 20.8 °C 16.6 °C 1002.9 hPa Calm   3.2 km/h 77 % 0.0 mm
01:00 20.8 °C 16.6 °C 1002.9 hPa Calm   3.2 km/h 77 % 0.0 mm
01:10 20.6 °C 16.4 °C 1003.9 hPa North 1.6 km/h 3.2 km/h 77 % 0.0 mm
01:20 20.4 °C 16.2 °C 1002.9 hPa Calm   1.6 km/h 77 % 0.0 mm
01:30 20.3 °C 16.1 °C 1002.9 hPa Calm     77 % 0.0 mm
01:40 20.2 °C 16.2 °C 1002.9 hPa Calm   1.6 km/h 78 % 0.0 mm
01:50 20.2 °C 16.2 °C 1002.9 hPa Calm   1.6 km/h 78 % 0.0 mm
02:00 20.1 °C 16.2 °C 1002.9 hPa West 1.6 km/h 3.2 km/h 78 % 0.0 mm
02:10 20.2 °C 16.2 °C 1003.9 hPa WSW 1.6 km/h 3.2 km/h 78 % 0.0 mm
02:20 20.2 °C 16.2 °C 1003.9 hPa Calm   4.8 km/h 78 % 0.0 mm
02:30 20.2 °C 16.2 °C 1003.9 hPa WSW 3.2 km/h 4.8 km/h 78 % 0.0 mm
02:40 20.4 °C 16.4 °C 1002.9 hPa SW 1.6 km/h 3.2 km/h 78 % 0.0 mm
02:50 20.6 °C 16.6 °C 1003.9 hPa SW 3.2 km/h 3.2 km/h 78 % 0.0 mm
03:00 21.0 °C 16.8 °C 1003.9 hPa WSW 3.2 km/h 4.8 km/h 77 % 0.0 mm
03:10 21.6 °C 17.2 °C 1003.9 hPa WSW 3.2 km/h 6.4 km/h 76 % 0.0 mm
03:20 22.1 °C 16.6 °C 1003.9 hPa WSW 4.8 km/h 8.0 km/h 71 % 0.0 mm
03:30 22.7 °C 16.3 °C 1003.9 hPa West 4.8 km/h 6.4 km/h 67 % 0.0 mm
03:40 23.0 °C 15.3 °C 1003.9 hPa West 4.8 km/h 9.7 km/h 62 % 0.0 mm
03:50 22.8 °C 14.4 °C 1002.9 hPa WSW 4.8 km/h 12.9 km/h 59 % 0.0 mm
04:00 22.5 °C 13.6 °C 1002.9 hPa WSW 4.8 km/h 9.7 km/h 57 % 0.0 mm
04:10 23.3 °C 14.1 °C 1005.0 hPa WSW 3.2 km/h 4.8 km/h 56 % 0.0 mm
04:20 23.7 °C 14.1 °C 1003.9 hPa WSW 4.8 km/h 4.8 km/h 55 % 0.0 mm
04:30 24.0 °C 13.8 °C 1003.9 hPa WSW 4.8 km/h 6.4 km/h 53 % 0.0 mm
04:40 24.5 °C 14.0 °C 1002.9 hPa WSW 3.2 km/h 6.4 km/h 52 % 0.0 mm
04:50 24.6 °C 13.8 °C 1003.9 hPa WSW 4.8 km/h 6.4 km/h 51 % 0.0 mm
05:00 25.0 °C 13.6 °C 1003.9 hPa WSW 8.0 km/h 11.3 km/h 49 % 0.0 mm
05:10 25.2 °C 13.4 °C 1003.9 hPa WSW 4.8 km/h 8.0 km/h 48 % 0.0 mm
05:20 25.7 °C 13.6 °C 1003.9 hPa WSW 9.7 km/h 9.7 km/h 47 % 0.0 mm
05:30 26.2 °C 13.7 °C 1003.9 hPa WSW 4.8 km/h 9.7 km/h 46 % 0.0 mm
05:40 26.3 °C 13.1 °C 1003.9 hPa West 8.0 km/h 9.7 km/h 44 % 0.0 mm
10:45 26.6 °C 12.6 °C 1002.9 hPa West 16.7 km/h 16.7 km/h 42 % 0.0 mm
10:46 26.6 °C 12.6 °C 1002.9 hPa WSW 16.7 km/h 16.7 km/h 42 % 0.0 mm
10:51 26.9 °C 12.9 °C 1002.9 hPa South 5.6 km/h 5.6 km/h 42 % 0.0 mm
10:56 27.1 °C 12.7 °C 1002.9 hPa SSW 7.6 km/h 7.6 km/h 41 % 0.0 mm
10:57 27.0 °C 12.6 °C 1002.9 hPa West 9.3 km/h 9.3 km/h 41 % 0.0 mm
11:02 26.6 °C 12.3 °C 1002.9 hPa WSW 5.6 km/h 5.6 km/h 41 % 0.0 mm
11:07 26.7 °C 12.0 °C 1002.9 hPa WNW 13.0 km/h 13.0 km/h 40 % 0.0 mm
11:12 26.7 °C 11.6 °C 1002.9 hPa SW 14.8 km/h 14.8 km/h 39 % 0.0 mm
11:17 27.1 °C 11.9 °C 1002.9 hPa WSW 6.4 km/h 6.4 km/h 39 % 0.0 mm
11:22 27.5 °C 11.9 °C 1002.9 hPa WSW 9.3 km/h 9.3 km/h 38 % 0.0 mm
11:23 27.5 °C 11.9 °C 1002.9 hPa West 13.0 km/h 13.0 km/h 38 % 0.0 mm
11:28 27.4 °C 11.4 °C 1002.9 hPa West 13.0 km/h 13.0 km/h 37 % 0.0 mm
11:33 27.4 °C 11.4 °C 1002.9 hPa WSW 9.3 km/h 9.3 km/h 37 % 0.0 mm
11:38 27.5 °C 11.1 °C 1002.9 hPa WSW 13.0 km/h 13.0 km/h 36 % 0.0 mm
11:43 27.8 °C 11.3 °C 1002.9 hPa SW 9.3 km/h 9.3 km/h 36 % 0.0 mm
11:48 27.6 °C 11.2 °C 1002.9 hPa West 11.1 km/h 11.1 km/h 36 % 0.0 mm
11:53 27.4 °C 11.0 °C 1002.9 hPa West 11.1 km/h 11.1 km/h 36 % 0.0 mm
11:58 27.1 °C 10.7 °C 1002.9 hPa West 9.3 km/h 9.3 km/h 36 % 0.0 mm
12:03 27.3 °C 10.9 °C 1002.9 hPa South 9.3 km/h 9.3 km/h 36 % 0.0 mm
12:08 27.7 °C 11.3 °C 1002.9 hPa SW 7.4 km/h 7.4 km/h 36 % 0.0 mm
12:13 27.1 °C 10.3 °C 1002.9 hPa WSW 16.7 km/h 16.7 km/h 35 % 0.0 mm
12:18 27.5 °C 10.7 °C 1002.9 hPa WSW 9.3 km/h 9.3 km/h 35 % 0.0 mm
12:23 27.8 °C 10.9 °C 1002.9 hPa WNW 11.1 km/h 11.1 km/h 35 % 0.0 mm
12:28 28.1 °C 10.8 °C 1002.9 hPa West 16.7 km/h 16.7 km/h 34 % 0.0 mm
12:33 28.2 °C 10.4 °C 1002.9 hPa West 13.0 km/h 13.0 km/h 33 % 0.0 mm
12:38 29.0 °C 11.1 °C 1002.9 hPa West 9.3 km/h 9.3 km/h 33 % 0.0 mm
12:43 28.4 °C 10.6 °C 1001.9 hPa WSW 14.8 km/h 14.8 km/h 33 % 0.0 mm
12:48 28.6 °C 10.3 °C 1001.9 hPa WSW 11.1 km/h 11.1 km/h 32 % 0.0 mm
12:53 28.3 °C 10.0 °C 1001.9 hPa WNW 9.3 km/h 9.3 km/h 32 % 0.0 mm
12:58 28.7 °C 10.8 °C 1001.9 hPa SW 9.3 km/h 9.3 km/h 33 % 0.0 mm
13:03 28.9 °C 10.6 °C 1001.9 hPa WSW 13.0 km/h 13.0 km/h 32 % 0.0 mm
13:08 28.4 °C 10.1 °C 1001.9 hPa WSW 11.1 km/h 11.1 km/h 32 % 0.0 mm
13:13 28.0 °C 9.8 °C 1001.9 hPa SW 9.7 km/h 9.7 km/h 32 % 0.0 mm
13:18 28.8 °C 10.0 °C 1001.9 hPa South 13.0 km/h 13.0 km/h 31 % 0.0 mm
13:23 29.0 °C 10.2 °C 1001.9 hPa WSW 14.8 km/h 14.8 km/h 31 % 0.0 mm
13:28 29.4 °C 10.5 °C 1001.9 hPa West 3.7 km/h 4.7 km/h 31 % 0.0 mm
13:33 29.7 °C 10.8 °C 1001.9 hPa West 9.3 km/h 9.3 km/h 31 % 0.0 mm
13:38 29.7 °C 10.8 °C 1001.9 hPa West 18.5 km/h 18.5 km/h 31 % 0.0 mm
13:43 29.7 °C 10.8 °C 1001.9 hPa WSW 13.0 km/h 13.0 km/h 31 % 0.0 mm
13:48 29.7 °C 10.8 °C 1001.9 hPa SSW 12.2 km/h 12.2 km/h 31 % 0.0 mm
13:53 29.9 °C 10.4 °C 1001.9 hPa SW 16.7 km/h 16.7 km/h 30 % 0.0 mm
13:58 29.9 °C 10.4 °C 1001.9 hPa West 5.6 km/h 5.6 km/h 30 % 0.0 mm
14:03 29.7 °C 9.8 °C 1001.9 hPa WSW 16.7 km/h 16.7 km/h 29 % 0.0 mm
14:08 29.6 °C 9.7 °C 1001.9 hPa South 14.8 km/h 14.8 km/h 29 % 0.0 mm
14:13 29.6 °C 9.7 °C 1001.9 hPa West 20.4 km/h 20.4 km/h 29 % 0.0 mm
14:18 29.7 °C 9.8 °C 1001.9 hPa West 25.9 km/h 25.9 km/h 29 % 0.0 mm
14:23 29.4 °C 9.0 °C 1001.9 hPa West 16.7 km/h 16.7 km/h 28 % 0.0 mm
14:28 29.7 °C 9.2 °C 1001.9 hPa SW 11.1 km/h 11.1 km/h 28 % 0.0 mm
14:33 30.0 °C 9.5 °C 1001.9 hPa SW 16.7 km/h 16.7 km/h 28 % 0.0 mm
14:38 29.9 °C 9.4 °C 1001.9 hPa West 16.9 km/h 16.9 km/h 28 % 0.0 mm
14:43 29.8 °C 9.3 °C 1001.9 hPa SW 20.4 km/h 20.4 km/h 28 % 0.0 mm
14:48 30.2 °C 9.7 °C 1001.9 hPa WSW 13.0 km/h 13.0 km/h 28 % 0.0 mm
14:53 30.0 °C 9.5 °C 1001.9 hPa WNW 9.3 km/h 9.3 km/h 28 % 0.0 mm
14:58 30.5 °C 9.9 °C 1000.9 hPa WSW 9.0 km/h 9.0 km/h 28 % 0.0 mm
15:03 29.9 °C 9.4 °C 1000.9 hPa West 13.0 km/h 13.0 km/h 28 % 0.0 mm
15:08 30.1 °C 9.6 °C 1000.9 hPa ESE 14.8 km/h 14.8 km/h 28 % 0.0 mm
15:13 30.1 °C 9.6 °C 1000.9 hPa West 10.0 km/h 10.0 km/h 28 % 0.0 mm
15:18 30.3 °C 9.8 °C 1000.9 hPa WNW 16.7 km/h 16.7 km/h 28 % 0.0 mm
15:23 30.1 °C 9.6 °C 1000.9 hPa WSW 11.1 km/h 11.1 km/h 28 % 0.0 mm
15:28 30.3 °C 9.8 °C 1000.9 hPa SW 9.3 km/h 9.3 km/h 28 % 0.0 mm
15:33 30.2 °C 9.7 °C 1000.9 hPa WSW 10.3 km/h 10.3 km/h 28 % 0.0 mm
15:38 30.1 °C 9.6 °C 1000.9 hPa SSE 11.9 km/h 11.9 km/h 28 % 0.0 mm
15:43 30.1 °C 9.6 °C 999.9 hPa WSW 13.0 km/h 13.0 km/h 28 % 0.0 mm
15:48 31.1 °C 10.4 °C 999.9 hPa SSW 18.5 km/h 18.5 km/h 28 % 0.0 mm
15:53 31.4 °C 10.7 °C 999.9 hPa South 11.1 km/h 11.1 km/h 28 % 0.0 mm
15:58 31.0 °C 10.3 °C 999.9 hPa SSW 18.5 km/h 18.5 km/h 28 % 0.0 mm
15:59 30.9 °C 10.3 °C 999.9 hPa WSW 18.5 km/h 18.5 km/h 28 % 0.0 mm
16:04 30.9 °C 10.3 °C 999.9 hPa WNW 20.4 km/h 20.4 km/h 28 % 0.0 mm
16:09 30.0 °C 9.5 °C 999.9 hPa WSW 13.0 km/h 13.0 km/h 28 % 0.0 mm
16:14 29.6 °C 9.2 °C 999.9 hPa SW 9.7 km/h 9.7 km/h 28 % 0.0 mm
16:19 29.1 °C 8.7 °C 999.9 hPa West 16.7 km/h 16.7 km/h 28 % 0.0 mm
16:24 29.0 °C 8.7 °C 999.9 hPa SW 11.1 km/h 11.1 km/h 28 % 0.0 mm
16:29 29.0 °C 8.7 °C 1000.9 hPa SW 14.5 km/h 14.5 km/h 28 % 0.0 mm
16:34 29.0 °C 8.7 °C 1000.9 hPa SW 9.3 km/h 9.3 km/h 28 % 0.0 mm
16:39 28.6 °C 8.8 °C 1000.9 hPa SW 13.0 km/h 13.0 km/h 29 % 0.0 mm
16:44 28.5 °C 8.7 °C 999.9 hPa South 24.1 km/h 24.1 km/h 29 % 0.0 mm
16:49 28.3 °C 8.6 °C 999.9 hPa West 18.5 km/h 18.5 km/h 29 % 0.0 mm
16:54 28.4 °C 8.7 °C 999.9 hPa WSW 27.8 km/h 27.8 km/h 29 % 0.0 mm
16:59 28.5 °C 9.2 °C 999.9 hPa WSW 16.7 km/h 16.7 km/h 30 % 0.0 mm
17:04 28.6 °C 9.3 °C 999.9 hPa SW 18.5 km/h 18.5 km/h 30 % 0.0 mm
17:09 28.5 °C 9.2 °C 999.9 hPa WSW 14.8 km/h 14.8 km/h 30 % 0.0 mm
17:14 28.9 °C 9.6 °C 999.9 hPa SW 16.7 km/h 16.7 km/h 30 % 0.0 mm
17:19 28.4 °C 9.2 °C 999.9 hPa West 22.2 km/h 22.2 km/h 30 % 0.0 mm
17:24 28.0 °C 9.3 °C 999.9 hPa SSW 29.6 km/h 29.6 km/h 31 % 0.0 mm
17:29 28.0 °C 9.3 °C 999.9 hPa SW 22.2 km/h 22.2 km/h 31 % 0.0 mm
17:34 27.9 °C 10.1 °C 999.9 hPa SSW 22.2 km/h 22.2 km/h 33 % 0.0 mm
17:40 28.1 °C 10.3 °C 999.9 hPa SSW 30.1 km/h 30.1 km/h 33 % 0.0 mm
17:45 27.9 °C 10.6 °C 999.9 hPa SW 33.3 km/h 33.3 km/h 34 % 0.0 mm
17:50 27.7 °C 10.8 °C 999.9 hPa SW 22.2 km/h 22.2 km/h 35 % 0.0 mm
17:55 28.3 °C 11.8 °C 999.9 hPa SW 16.1 km/h 16.1 km/h 36 % 0.0 mm
18:00 28.0 °C 11.6 °C 999.9 hPa South 16.1 km/h 16.1 km/h 36 % 0.0 mm
18:05 27.8 °C 11.8 °C 999.9 hPa West 22.2 km/h 22.2 km/h 37 % 0.0 mm
18:10 28.0 °C 11.6 °C 999.9 hPa SW 19.8 km/h 19.8 km/h 36 % 0.0 mm
18:15 28.0 °C 11.6 °C 999.9 hPa SSW 22.2 km/h 22.2 km/h 36 % 0.0 mm
18:20 27.9 °C 11.4 °C 999.9 hPa SW 20.4 km/h 20.4 km/h 36 % 0.0 mm
18:25 27.5 °C 11.1 °C 999.9 hPa SW 16.7 km/h 16.7 km/h 36 % 0.0 mm
18:30 27.2 °C 11.2 °C 999.9 hPa SW 20.9 km/h 20.9 km/h 37 % 0.0 mm
18:35 26.8 °C 11.7 °C 999.9 hPa WSW 20.4 km/h 20.4 km/h 39 % 0.0 mm
18:40 26.3 °C 11.6 °C 999.9 hPa SW 20.9 km/h 20.9 km/h 40 % 0.0 mm
18:45 26.2 °C 11.6 °C 999.9 hPa West 24.1 km/h 24.1 km/h 40 % 0.0 mm
18:50 26.0 °C 11.7 °C 999.9 hPa WSW 24.1 km/h 24.1 km/h 41 % 0.0 mm
18:55 26.1 °C 11.8 °C 999.9 hPa SW 14.8 km/h 14.8 km/h 41 % 0.0 mm
19:00 25.9 °C 12.0 °C 999.9 hPa South 16.7 km/h 16.7 km/h 42 % 0.0 mm
19:05 25.8 °C 12.3 °C 999.9 hPa South 14.8 km/h 14.8 km/h 43 % 0.0 mm
19:10 25.6 °C 12.4 °C 999.9 hPa West 15.8 km/h 15.8 km/h 44 % 0.0 mm
19:15 24.9 °C 12.2 °C 999.9 hPa WSW 33.3 km/h 33.3 km/h 45 % 0.0 mm
19:20 20.9 °C 11.2 °C 999.9 hPa SSW 22.2 km/h 22.2 km/h 54 % 0.0 mm
19:25 19.4 °C 11.2 °C 999.9 hPa SW 9.3 km/h 9.3 km/h 59 % 2.0 mm
19:30 19.0 °C 11.1 °C 1001.9 hPa SW 7.4 km/h 7.4 km/h 60 % 2.0 mm
19:35 18.8 °C 11.6 °C 1001.9 hPa SSW 9.3 km/h 9.3 km/h 63 % 2.0 mm
19:40 18.7 °C 11.7 °C 1001.9 hPa WSW 5.6 km/h 5.6 km/h 64 % 2.0 mm
19:45 18.8 °C 12.1 °C 1000.9 hPa West 5.6 km/h 5.6 km/h 65 % 2.0 mm
19:50 19.1 °C 12.6 °C 1000.9 hPa West 3.7 km/h 3.7 km/h 66 % 2.0 mm
19:55 19.2 °C 12.4 °C 1000.9 hPa NW 2.6 km/h 2.6 km/h 65 % 2.0 mm
20:00 19.4 °C 13.1 °C 1001.9 hPa East 5.6 km/h 5.6 km/h 67 % 2.0 mm
20:05 19.5 °C 13.0 °C 1001.9 hPa East 3.9 km/h 3.9 km/h 66 % 2.0 mm
20:10 19.6 °C 13.3 °C 1001.9 hPa ENE 5.8 km/h 5.8 km/h 67 % 2.0 mm
20:15 19.7 °C 13.4 °C 1001.9 hPa South 3.7 km/h 3.7 km/h 67 % 2.0 mm
20:20 19.6 °C 13.1 °C 1001.9 hPa East 5.6 km/h 5.6 km/h 66 % 2.0 mm
20:25 19.6 °C 12.8 °C 1001.9 hPa NE 3.7 km/h   65 % 0.0 mm
20:30 19.6 °C 12.8 °C 1001.9 hPa NE 1.9 km/h   65 % 0.0 mm
20:35 19.6 °C 12.6 °C 1001.9 hPa West 1.9 km/h   64 % 0.0 mm
20:40 19.7 °C 12.7 °C 1001.9 hPa Calm     64 % 0.0 mm
20:45 19.7 °C 12.2 °C 1001.9 hPa WSW 3.7 km/h 3.7 km/h 62 % 0.0 mm
20:50 19.8 °C 12.6 °C 1001.9 hPa Calm     63 % 0.0 mm
20:55 19.9 °C 12.7 °C 1001.9 hPa SE 1.9 km/h   63 % 0.0 mm
21:00 19.9 °C 12.4 °C 1001.9 hPa Calm     62 % 0.0 mm
21:05 19.9 °C 13.1 °C 1001.9 hPa WSW 2.6 km/h   65 % 0.0 mm
21:10 19.7 °C 13.4 °C 1001.9 hPa WSW 1.9 km/h   67 % 0.0 mm
21:15 19.6 °C 13.3 °C 1001.9 hPa Calm     67 % 0.0 mm
21:20 19.5 °C 13.2 °C 1001.9 hPa WNW 1.9 km/h   67 % 0.0 mm
21:25 19.5 °C 13.2 °C 1001.9 hPa Calm     67 % 0.0 mm
21:30 19.5 °C 13.7 °C 1002.9 hPa NE 3.2 km/h 3.2 km/h 69 % 0.0 mm
21:35 19.3 °C 13.2 °C 1002.9 hPa ENE 2.3 km/h 2.3 km/h 68 % 0.0 mm
21:40 19.3 °C 13.0 °C 1002.9 hPa NE 3.7 km/h 3.7 km/h 67 % 0.0 mm
21:45 19.5 °C 13.0 °C 1002.9 hPa ENE 7.9 km/h 7.9 km/h 66 % 0.0 mm
21:50 19.6 °C 12.8 °C 1002.9 hPa North 7.4 km/h 7.4 km/h 65 % 0.0 mm
21:55 19.7 °C 12.7 °C 1002.9 hPa NE 9.3 km/h 9.3 km/h 64 % 0.0 mm
22:00 19.7 °C 12.9 °C 1003.9 hPa NNE 7.4 km/h 7.4 km/h 65 % 0.0 mm
22:05 19.7 °C 12.9 °C 1003.9 hPa NNE 9.3 km/h 9.3 km/h 65 % 0.0 mm
22:10 19.7 °C 12.9 °C 1003.9 hPa West 7.4 km/h 7.4 km/h 65 % 0.0 mm
22:15 19.4 °C 12.7 °C 1003.9 hPa NNE 5.3 km/h 5.3 km/h 65 % 0.0 mm
22:20 19.5 °C 12.5 °C 1003.9 hPa WSW 5.6 km/h 5.6 km/h 64 % 0.0 mm
22:25 19.7 °C 12.7 °C 1003.9 hPa East 3.9 km/h 3.9 km/h 64 % 0.0 mm
22:30 19.9 °C 12.4 °C 1002.9 hPa NNW 1.9 km/h 2.3 km/h 62 % 0.0 mm
22:35 20.2 °C 12.2 °C 1002.9 hPa East 3.7 km/h 3.7 km/h 60 % 0.0 mm
22:40 20.0 °C 12.5 °C 1002.9 hPa East 5.6 km/h 5.6 km/h 62 % 0.0 mm
22:45 19.6 °C 12.8 °C 1002.9 hPa ESE 7.4 km/h 7.4 km/h 65 % 0.0 mm
22:50 19.4 °C 12.7 °C 1002.9 hPa SSE 5.6 km/h 5.6 km/h 65 % 0.0 mm
22:55 19.3 °C 12.8 °C 1002.9 hPa SE 5.6 km/h 5.6 km/h 66 % 0.0 mm
23:00 19.2 °C 12.4 °C 1003.9 hPa SSW 1.4 km/h   65 % 0.0 mm
23:05 19.1 °C 12.6 °C 1003.9 hPa WSW 3.7 km/h 3.7 km/h 66 % 0.0 mm
23:10 18.9 °C 12.6 °C 1003.9 hPa SW 1.4 km/h   67 % 0.0 mm
23:15 18.7 °C 12.7 °C 1002.9 hPa Calm     68 % 0.0 mm
23:20 18.7 °C 12.7 °C 1002.9 hPa NE 3.7 km/h 3.7 km/h 68 % 0.0 mm
23:25 18.9 °C 12.9 °C 1002.9 hPa East 3.7 km/h 3.9 km/h 68 % 0.0 mm
23:30 18.8 °C 12.8 °C 1003.9 hPa East 6.9 km/h 6.9 km/h 68 % 0.0 mm
23:35 18.8 °C 12.8 °C 1003.9 hPa ESE 9.3 km/h 9.3 km/h 68 % 0.0 mm
23:40 18.8 °C 12.6 °C 1003.9 hPa ESE 5.6 km/h 5.6 km/h 67 % 0.0 mm
23:45 18.8 °C 12.8 °C 1003.9 hPa NNE 5.6 km/h 5.6 km/h 68 % 0.0 mm
23:50 18.8 °C 12.8 °C 1003.9 hPa East 7.4 km/h 7.4 km/h 68 % 0.0 mm
23:55 18.8 °C 12.8 °C 1003.9 hPa SE 9.3 km/h 9.3 km/h 68 % 0.0 mm
Meteo Sesrovires
Elogis d' Weather Underground - 3.5 mb

Guio original per  Jim McMurry - jmcmurry@mwt.net Adaptat per a la plantilla per  Wim van der Kuil - Leuven-Template.eu

Trobareu la nostra informacio del temps tambe a:

Weather Underground

AWEKAS